Time;durP1;ratioP1;P1;durP2;ratioP2;P2;SDS_P1;SDS_P2;PMS_P1;PMS_P2;Temp;Humidity;BMP_temperature;BMP_pressure;BME280_temperature;BME280_humidity;BME280_pressure;Samples;Min_cycle;Max_cycle;Signal;HPM_P1;HPM_P2
2022/05/29 00:00:38;;;;;;;14.80;4.50;;;9.80;99.90;;;;;;5035676;28;20285;-47
2022/05/29 00:03:06;;;;;;;7.87;3.57;;;9.80;99.90;;;;;;5050301;28;20202;-51
2022/05/29 00:05:33;;;;;;;14.40;4.37;;;9.80;99.90;;;;;;5041489;28;20198;-53
2022/05/29 00:08:00;;;;;;;21.87;4.70;;;9.80;99.90;;;;;;5054911;28;20239;-47
2022/05/29 00:10:27;;;;;;;9.57;3.97;;;9.80;99.90;;;;;;5044122;28;20207;-54
2022/05/29 00:12:56;;;;;;;12.80;3.60;;;9.80;99.90;;;;;;5052630;28;20567;-47
2022/05/29 00:15:22;;;;;;;12.17;3.93;;;9.80;99.90;;;;;;5043478;28;20198;-52
2022/05/29 00:17:51;;;;;;;11.50;4.47;;;9.80;99.90;;;;;;5052963;28;20237;-51
2022/05/29 00:20:17;;;;;;;16.20;4.33;;;9.80;99.90;;;;;;5051216;28;20202;-49
2022/05/29 00:22:44;;;;;;;13.27;4.03;;;9.80;99.90;;;;;;5048003;28;20190;-52
2022/05/29 00:25:13;;;;;;;18.43;4.60;;;9.80;99.90;;;;;;5052900;28;20207;-54
2022/05/29 00:27:40;;;;;;;15.80;4.63;;;9.80;99.90;;;;;;5051085;28;20824;-53
2022/05/29 00:30:12;;;;;;;12.50;4.50;;;9.80;99.90;;;;;;5060233;28;20663;-48
2022/05/29 00:32:39;;;;;;;12.63;4.40;;;9.80;99.90;;;;;;5045679;28;20433;-54
2022/05/29 00:35:06;;;;;;;12.53;3.83;;;9.80;99.90;;;;;;5048083;28;20203;-47
2022/05/29 00:37:36;;;;;;;11.90;4.37;;;9.80;99.90;;;;;;5050300;28;20256;-50
2022/05/29 00:40:15;;;;;;;14.10;4.10;;;9.80;99.90;;;;;;5050241;28;20199;-54
2022/05/29 00:42:41;;;;;;;15.30;4.00;;;9.80;99.90;;;;;;5047108;28;20946;-52
2022/05/29 00:45:18;;;;;;;14.30;4.13;;;9.90;99.90;;;;;;5060031;28;20202;-49
2022/05/29 00:47:45;;;;;;;13.50;3.80;;;9.90;99.90;;;;;;5042039;28;20213;-49
2022/05/29 00:50:12;;;;;;;10.53;4.00;;;9.90;99.90;;;;;;5051925;28;20234;-48
2022/05/29 00:52:39;;;;;;;11.77;3.90;;;9.90;99.90;;;;;;5049678;28;20207;-49
2022/05/29 00:55:13;;;;;;;13.03;3.63;;;9.90;99.90;;;;;;5058522;28;20191;-49
2022/05/29 00:57:43;;;;;;;15.67;4.50;;;9.90;99.90;;;;;;5057862;28;20309;-48
2022/05/29 01:00:16;;;;;;;17.57;4.47;;;9.90;99.90;;;;;;5061388;28;20194;-50
2022/05/29 01:02:43;;;;;;;13.27;4.37;;;9.90;99.90;;;;;;5051655;28;20887;-50
2022/05/29 01:05:12;;;;;;;11.50;4.67;;;9.90;99.90;;;;;;5047162;28;20203;-52
2022/05/29 01:07:38;;;;;;;11.97;3.90;;;9.90;99.90;;;;;;5057240;28;20211;-47
2022/05/29 01:10:07;;;;;;;12.13;3.93;;;9.90;99.90;;;;;;5059160;28;20198;-50
2022/05/29 01:12:41;;;;;;;10.33;4.90;;;9.90;99.90;;;;;;5050220;28;20924;-48
2022/05/29 01:15:16;;;;;;;13.37;4.17;;;9.90;99.90;;;;;;5058964;28;20230;-51
2022/05/29 01:17:52;;;;;;;14.43;4.60;;;9.90;99.90;;;;;;5040652;28;20338;-49
2022/05/29 01:20:57;;;;;;;11.37;3.97;;;9.90;99.90;;;;;;5049838;28;20214;-50
2022/05/29 01:23:41;;;;;;;17.33;4.27;;;9.80;99.90;;;;;;5046599;28;20207;-51
2022/05/29 01:26:33;;;;;;;15.00;4.60;;;9.80;99.90;;;;;;5058383;28;20198;-47
2022/05/29 01:29:03;;;;;;;12.20;4.00;;;9.80;99.90;;;;;;5045790;28;20219;-53
2022/05/29 01:31:42;;;;;;;12.00;4.40;;;9.80;99.90;;;;;;5040632;28;20199;-51
2022/05/29 01:34:27;;;;;;;12.13;5.13;;;9.80;99.90;;;;;;5048939;28;20304;-54
2022/05/29 01:37:05;;;;;;;12.90;4.27;;;9.80;99.90;;;;;;5051814;28;20216;-52
2022/05/29 01:39:36;;;;;;;17.93;4.57;;;9.80;99.90;;;;;;5047424;28;20362;-50
2022/05/29 01:42:08;;;;;;;17.57;5.00;;;9.90;99.90;;;;;;5051339;28;20195;-49
2022/05/29 01:44:42;;;;;;;19.73;4.13;;;9.90;99.90;;;;;;5042056;28;20199;-49
2022/05/29 01:47:14;;;;;;;14.90;4.50;;;9.80;99.90;;;;;;5049753;28;20261;-49
2022/05/29 01:49:47;;;;;;;14.27;3.60;;;9.80;99.90;;;;;;5043474;28;20213;-55
2022/05/29 01:52:19;;;;;;;14.87;3.97;;;9.80;99.90;;;;;;5056176;28;20214;-50
2022/05/29 01:54:51;;;;;;;10.50;3.47;;;9.80;99.90;;;;;;5057201;28;20214;-50
2022/05/29 01:57:22;;;;;;;15.53;4.20;;;9.80;99.90;;;;;;5058320;28;20217;-51
2022/05/29 01:59:55;;;;;;;17.47;3.83;;;9.80;99.90;;;;;;5051923;28;20213;-46
2022/05/29 02:02:27;;;;;;;12.57;3.83;;;9.80;99.90;;;;;;5049740;28;20195;-48
2022/05/29 02:04:57;;;;;;;13.83;4.40;;;9.80;99.90;;;;;;5041383;28;20202;-49
2022/05/29 02:10:20;;;;;;;13.40;4.83;;;9.80;99.90;;;;;;5059089;28;20195;-53
2022/05/29 02:12:53;;;;;;;11.77;4.13;;;9.80;99.90;;;;;;5048454;28;20694;-49
2022/05/29 02:15:29;;;;;;;12.77;3.70;;;9.80;99.90;;;;;;5045602;28;20219;-50
2022/05/29 02:18:01;;;;;;;12.07;3.70;;;9.80;99.90;;;;;;5057410;28;20218;-47
2022/05/29 02:20:33;;;;;;;11.37;3.63;;;9.80;99.90;;;;;;5042672;28;20199;-48
2022/05/29 02:23:06;;;;;;;15.00;3.60;;;9.80;99.90;;;;;;5048466;28;20203;-47
2022/05/29 02:25:36;;;;;;;14.50;4.17;;;9.80;99.90;;;;;;5043057;28;20291;-48
2022/05/29 02:28:07;;;;;;;8.27;3.20;;;9.80;99.90;;;;;;5051668;28;20221;-50
2022/05/29 02:30:45;;;;;;;15.53;4.07;;;9.80;99.90;;;;;;5042026;28;20198;-46
2022/05/29 02:33:19;;;;;;;12.40;4.00;;;9.80;99.90;;;;;;5057619;28;20253;-49
2022/05/29 02:35:54;;;;;;;12.27;3.57;;;9.80;99.90;;;;;;5043577;28;20296;-48
2022/05/29 02:38:30;;;;;;;13.93;3.63;;;9.80;99.90;;;;;;5047732;28;20753;-50
2022/05/29 02:41:02;;;;;;;11.63;3.90;;;9.80;99.90;;;;;;5047922;28;20266;-50
2022/05/29 02:43:40;;;;;;;8.27;3.53;;;9.80;99.90;;;;;;5044218;28;20207;-48
2022/05/29 02:46:15;;;;;;;13.63;3.93;;;9.80;99.90;;;;;;5041034;28;20569;-49
2022/05/29 02:48:45;;;;;;;13.73;3.67;;;9.80;99.90;;;;;;5046892;28;20217;-47
2022/05/29 02:51:18;;;;;;;12.50;3.50;;;9.90;99.90;;;;;;5053167;28;20207;-52
2022/05/29 02:53:46;;;;;;;9.13;3.90;;;9.90;99.90;;;;;;5043205;28;20303;-49
2022/05/29 02:56:14;;;;;;;13.73;3.60;;;9.90;99.90;;;;;;5043566;28;20207;-51
2022/05/29 02:58:44;;;;;;;9.80;3.53;;;9.80;99.90;;;;;;5044763;28;20207;-47
2022/05/29 03:01:26;;;;;;;12.03;3.87;;;9.80;99.90;;;;;;5043861;28;20599;-52
2022/05/29 03:04:07;;;;;;;15.70;4.13;;;9.80;99.90;;;;;;5043087;28;20195;-47
2022/05/29 03:06:51;;;;;;;8.10;3.20;;;9.80;99.90;;;;;;5037062;28;20256;-53
2022/05/29 03:09:33;;;;;;;11.70;3.70;;;9.80;99.90;;;;;;5047545;28;20234;-52
2022/05/29 03:12:01;;;;;;;14.00;4.00;;;9.90;99.90;;;;;;5050036;28;20811;-48
2022/05/29 03:14:39;;;;;;;14.93;3.80;;;9.80;99.90;;;;;;5042070;28;20271;-47
2022/05/29 03:17:15;;;;;;;16.03;3.70;;;9.80;99.90;;;;;;5046922;28;20203;-48
2022/05/29 03:19:51;;;;;;;11.90;3.43;;;9.90;99.90;;;;;;5043489;28;20187;-46
2022/05/29 03:22:27;;;;;;;11.37;3.53;;;9.90;99.90;;;;;;5039767;28;20233;-51
2022/05/29 03:25:01;;;;;;;13.17;3.83;;;9.90;99.90;;;;;;5047283;28;20198;-47
2022/05/29 03:27:32;;;;;;;18.77;3.80;;;9.90;99.90;;;;;;5048508;28;20202;-49
2022/05/29 03:30:05;;;;;;;11.47;3.40;;;9.80;99.90;;;;;;5049442;28;20281;-50
2022/05/29 03:32:35;;;;;;;13.10;4.07;;;9.80;99.90;;;;;;5046941;28;20285;-53
2022/05/29 03:35:16;;;;;;;16.23;3.87;;;9.80;99.90;;;;;;5054100;28;20221;-50
2022/05/29 03:37:44;;;;;;;10.27;3.10;;;9.90;99.90;;;;;;5039210;28;21647;-46
2022/05/29 03:40:11;;;;;;;10.33;3.30;;;9.90;99.90;;;;;;5050115;28;20202;-50
2022/05/29 03:42:38;;;;;;;15.07;3.70;;;9.90;99.90;;;;;;5053288;28;20225;-51
2022/05/29 03:45:08;;;;;;;14.47;3.67;;;9.90;99.90;;;;;;5058826;28;20199;-51
2022/05/29 03:47:36;;;;;;;15.23;3.50;;;9.90;99.90;;;;;;5036372;28;20295;-52
2022/05/29 03:50:04;;;;;;;12.47;4.00;;;9.90;99.90;;;;;;5053473;28;20221;-49
2022/05/29 03:52:31;;;;;;;13.20;3.50;;;10.00;99.90;;;;;;5047635;28;20187;-49
2022/05/29 03:54:58;;;;;;;14.80;3.93;;;9.90;99.90;;;;;;5044537;28;20304;-48
2022/05/29 03:57:26;;;;;;;8.60;3.30;;;10.00;99.90;;;;;;5045214;28;20203;-49
2022/05/29 03:59:52;;;;;;;13.93;3.80;;;10.00;99.90;;;;;;5051254;28;20264;-51
2022/05/29 04:02:20;;;;;;;12.80;3.80;;;9.90;99.90;;;;;;5050701;28;20207;-51
2022/05/29 04:04:48;;;;;;;15.17;3.87;;;9.90;99.90;;;;;;5048051;28;20191;-50
2022/05/29 04:07:15;;;;;;;16.97;3.33;;;9.90;99.90;;;;;;5049820;28;20218;-47
2022/05/29 04:12:26;;;;;;;10.97;3.40;;;10.00;99.90;;;;;;5047188;28;20199;-49
2022/05/29 04:14:53;;;;;;;12.60;3.33;;;10.00;99.90;;;;;;5049971;28;20214;-46
2022/05/29 04:17:20;;;;;;;15.00;3.90;;;10.00;99.90;;;;;;5050323;28;20211;-49
2022/05/29 04:19:48;;;;;;;12.37;3.17;;;10.00;99.90;;;;;;5052775;28;20206;-49
2022/05/29 04:22:17;;;;;;;10.83;3.37;;;10.00;99.90;;;;;;5046631;28;20257;-46
2022/05/29 04:24:44;;;;;;;14.97;3.50;;;10.00;99.90;;;;;;5043484;28;20225;-47
2022/05/29 04:27:13;;;;;;;11.43;3.90;;;10.00;99.90;;;;;;5053205;28;20198;-49
2022/05/29 04:29:40;;;;;;;17.00;3.37;;;10.00;99.90;;;;;;5047136;28;20592;-51
2022/05/29 04:34:55;;;;;;;12.50;3.67;;;10.00;99.90;;;;;;5051967;28;20297;-48
2022/05/29 04:37:22;;;;;;;11.83;3.60;;;10.10;99.90;;;;;;5058522;28;20445;-51
2022/05/29 04:39:49;;;;;;;12.23;4.27;;;10.10;99.90;;;;;;5051617;28;20199;-50
2022/05/29 04:42:16;;;;;;;14.93;3.77;;;10.10;99.90;;;;;;5044011;28;20762;-51
2022/05/29 04:44:42;;;;;;;10.40;3.27;;;10.10;99.90;;;;;;5046086;28;20199;-48
2022/05/29 04:47:10;;;;;;;15.00;4.23;;;10.10;99.90;;;;;;5047050;28;20969;-49
2022/05/29 04:49:37;;;;;;;10.10;3.47;;;10.20;99.90;;;;;;5051319;28;20247;-51
2022/05/29 04:52:06;;;;;;;11.93;3.60;;;10.20;99.90;;;;;;5044770;28;20749;-52
2022/05/29 04:54:34;;;;;;;10.83;3.03;;;10.20;99.90;;;;;;5051462;28;20207;-52
2022/05/29 04:57:01;;;;;;;11.33;3.50;;;10.20;99.90;;;;;;5042287;28;20528;-52
2022/05/29 04:59:27;;;;;;;7.60;3.40;;;10.20;99.90;;;;;;5056082;28;20223;-51
2022/05/29 05:02:16;;;;;;;12.27;4.27;;;10.20;99.90;;;;;;5041537;28;20210;-54
2022/05/29 05:04:43;;;;;;;13.07;3.70;;;10.20;99.90;;;;;;5052257;28;20622;-50
2022/05/29 05:07:12;;;;;;;9.33;3.23;;;10.20;99.90;;;;;;5046937;28;20218;-52
2022/05/29 05:09:38;;;;;;;14.63;3.17;;;10.20;99.90;;;;;;5050430;28;20223;-52
2022/05/29 05:12:06;;;;;;;19.47;4.23;;;10.30;99.90;;;;;;5044274;28;20575;-50
2022/05/29 05:14:35;;;;;;;9.67;3.20;;;10.30;99.90;;;;;;5048312;28;20218;-49
2022/05/29 05:17:02;;;;;;;13.37;3.03;;;10.40;99.90;;;;;;5059471;28;20204;-50
2022/05/29 05:19:29;;;;;;;12.43;3.43;;;10.40;99.90;;;;;;5061446;28;20219;-46
2022/05/29 05:21:56;;;;;;;11.87;4.07;;;10.40;99.90;;;;;;5047783;28;20233;-51
2022/05/29 05:24:24;;;;;;;9.47;3.57;;;10.40;99.90;;;;;;5045904;28;20196;-46
2022/05/29 05:26:51;;;;;;;16.07;4.17;;;10.40;99.90;;;;;;5051700;28;20198;-49
2022/05/29 05:29:18;;;;;;;12.13;3.97;;;10.50;99.90;;;;;;5044733;28;20233;-50
2022/05/29 05:31:45;;;;;;;12.60;3.70;;;10.50;99.90;;;;;;5052228;28;20201;-49
2022/05/29 05:34:12;;;;;;;12.93;3.47;;;10.50;99.90;;;;;;5051138;28;20210;-47
2022/05/29 05:36:39;;;;;;;11.60;4.03;;;10.60;99.90;;;;;;5052160;28;20199;-52
2022/05/29 05:39:05;;;;;;;10.50;3.40;;;10.60;99.90;;;;;;5051260;28;20226;-50
2022/05/29 05:41:34;;;;;;;12.87;3.60;;;10.60;99.90;;;;;;5058259;28;20211;-49
2022/05/29 05:44:01;;;;;;;14.10;4.20;;;10.60;99.90;;;;;;5046505;28;20264;-54
2022/05/29 05:46:28;;;;;;;16.10;4.10;;;10.70;99.90;;;;;;5053813;28;20633;-47
2022/05/29 05:48:57;;;;;;;14.73;4.07;;;10.70;99.90;;;;;;5053347;28;20687;-48
2022/05/29 05:51:24;;;;;;;14.57;3.63;;;10.70;99.90;;;;;;5044208;28;20187;-54
2022/05/29 05:53:51;;;;;;;16.07;3.43;;;10.70;99.90;;;;;;5050147;28;20199;-55
2022/05/29 05:56:19;;;;;;;11.57;3.60;;;10.80;99.90;;;;;;5048112;28;20218;-51
2022/05/29 05:58:47;;;;;;;8.37;3.20;;;10.80;99.90;;;;;;5053976;28;20215;-52
2022/05/29 06:01:16;;;;;;;12.07;3.00;;;10.90;99.90;;;;;;5040118;28;20202;-52
2022/05/29 06:03:43;;;;;;;12.07;3.93;;;10.90;99.90;;;;;;5051519;28;20203;-51
2022/05/29 06:06:10;;;;;;;14.67;3.40;;;10.90;99.90;;;;;;5048902;28;20955;-49
2022/05/29 06:08:36;;;;;;;15.33;3.50;;;11.00;99.90;;;;;;5054857;28;20624;-47
2022/05/29 06:11:26;;;;;;;7.90;3.10;;;11.20;99.90;;;;;;5049409;28;20210;-47
2022/05/29 06:13:55;;;;;;;8.13;3.27;;;11.20;99.90;;;;;;5040537;28;20688;-51
2022/05/29 06:16:23;;;;;;;7.60;3.00;;;11.30;99.90;;;;;;5047994;28;20412;-49
2022/05/29 06:18:50;;;;;;;7.73;3.30;;;11.30;99.90;;;;;;5043918;28;20231;-52
2022/05/29 06:21:17;;;;;;;11.17;3.20;;;11.40;99.90;;;;;;5043139;28;21314;-53
2022/05/29 06:23:44;;;;;;;12.40;3.23;;;11.50;99.90;;;;;;5039027;28;20207;-51
2022/05/29 06:26:12;;;;;;;9.90;2.83;;;11.50;99.90;;;;;;5052753;28;20205;-55
2022/05/29 06:28:42;;;;;;;7.40;3.10;;;11.50;99.90;;;;;;5034701;28;20620;-53
2022/05/29 06:31:12;;;;;;;9.37;3.10;;;11.50;99.90;;;;;;5042988;28;20215;-54
2022/05/29 06:33:39;;;;;;;5.13;2.30;;;11.50;99.90;;;;;;5044756;28;20690;-52
2022/05/29 06:36:07;;;;;;;8.60;2.23;;;11.50;99.90;;;;;;5041270;28;20214;-53
2022/05/29 06:38:34;;;;;;;11.47;2.40;;;11.50;99.90;;;;;;5049398;28;20230;-55
2022/05/29 06:41:04;;;;;;;7.77;2.37;;;11.50;99.90;;;;;;5046542;28;20199;-53
2022/05/29 06:43:30;;;;;;;7.50;2.83;;;11.60;99.90;;;;;;5048722;28;20206;-49
2022/05/29 06:45:57;;;;;;;4.33;2.70;;;11.70;99.90;;;;;;5041745;28;20203;-53
2022/05/29 06:48:25;;;;;;;6.90;2.73;;;11.70;99.90;;;;;;5052584;28;20280;-49
2022/05/29 06:50:53;;;;;;;5.43;2.40;;;11.70;99.90;;;;;;5050991;28;20195;-52
2022/05/29 06:53:21;;;;;;;6.03;2.27;;;11.70;99.90;;;;;;5051358;28;20265;-48
2022/05/29 06:55:54;;;;;;;10.67;2.57;;;11.80;99.90;;;;;;5042906;28;20206;-50
2022/05/29 06:58:23;;;;;;;7.30;2.10;;;11.80;99.90;;;;;;5057275;28;20229;-51
2022/05/29 07:09:07;;;;;;;10.60;2.63;;;11.90;99.90;;;;;;5055789;28;20237;-50
2022/05/29 07:11:38;;;;;;;9.27;2.43;;;11.90;99.90;;;;;;5047128;28;20199;-50
2022/05/29 07:14:06;;;;;;;9.27;2.80;;;11.90;99.90;;;;;;5055689;28;20190;-53
2022/05/29 07:16:34;;;;;;;8.50;2.40;;;11.90;99.90;;;;;;5042576;28;20230;-51
2022/05/29 07:19:04;;;;;;;5.30;2.00;;;11.90;99.90;;;;;;5051918;28;20638;-51
2022/05/29 07:21:33;;;;;;;6.03;2.73;;;11.90;99.90;;;;;;5046966;28;20613;-49
2022/05/29 07:24:00;;;;;;;8.13;2.70;;;12.00;99.90;;;;;;5048015;28;20195;-49
2022/05/29 07:26:27;;;;;;;9.13;2.47;;;12.10;99.90;;;;;;5041010;28;20213;-48
2022/05/29 07:28:54;;;;;;;10.57;3.07;;;12.10;99.90;;;;;;5045891;28;20220;-50
2022/05/29 07:31:21;;;;;;;6.83;2.53;;;12.10;99.90;;;;;;5038687;28;20198;-49
2022/05/29 07:33:47;;;;;;;12.37;3.87;;;12.10;99.90;;;;;;5053944;28;20202;-49
2022/05/29 07:36:19;;;;;;;11.37;3.47;;;12.10;99.90;;;;;;5037320;28;20993;-51
2022/05/29 07:38:45;;;;;;;13.10;3.23;;;12.10;99.90;;;;;;5050162;28;20698;-53
2022/05/29 07:43:57;;;;;;;11.23;3.93;;;12.10;99.90;;;;;;5052393;28;20659;-50
2022/05/29 07:46:24;;;;;;;12.13;3.60;;;12.10;99.90;;;;;;5039667;28;20966;-51
2022/05/29 07:48:51;;;;;;;13.03;3.07;;;12.20;99.90;;;;;;5048955;28;20231;-46
2022/05/29 07:51:19;;;;;;;8.60;3.40;;;12.20;99.90;;;;;;5043612;28;20203;-54
2022/05/29 07:53:46;;;;;;;12.00;4.13;;;12.30;99.90;;;;;;5046230;28;20541;-53
2022/05/29 07:56:16;;;;;;;8.93;3.10;;;12.30;99.90;;;;;;5046789;28;20215;-48
2022/05/29 07:58:44;;;;;;;12.10;4.03;;;12.30;99.90;;;;;;5044710;28;20233;-51
2022/05/29 08:01:12;;;;;;;13.83;3.23;;;12.40;99.90;;;;;;5034902;28;21299;-51
2022/05/29 08:03:38;;;;;;;8.50;3.30;;;12.40;99.90;;;;;;5056837;28;20186;-49
2022/05/29 08:06:05;;;;;;;10.27;3.40;;;12.40;99.90;;;;;;5040806;28;20210;-50
2022/05/29 08:08:34;;;;;;;11.37;3.80;;;12.40;99.90;;;;;;5051637;28;20214;-50
2022/05/29 08:11:02;;;;;;;13.00;3.77;;;12.50;99.90;;;;;;5051519;28;20202;-49
2022/05/29 08:13:30;;;;;;;10.87;3.80;;;12.50;99.90;;;;;;5050037;28;20209;-51
2022/05/29 08:15:57;;;;;;;10.40;3.50;;;12.60;99.90;;;;;;5046384;28;20218;-50
2022/05/29 08:18:23;;;;;;;9.27;3.67;;;12.60;99.90;;;;;;5038047;28;20227;-49
2022/05/29 08:20:51;;;;;;;10.57;3.60;;;12.60;99.90;;;;;;5044383;28;20202;-53
2022/05/29 08:23:19;;;;;;;10.07;3.53;;;12.70;99.90;;;;;;5048471;28;20293;-51
2022/05/29 08:31:16;;;;;;;10.60;3.13;;;12.90;99.90;;;;;;5043955;28;20215;-48
2022/05/29 08:33:46;;;;;;;11.00;3.60;;;13.00;99.90;;;;;;5036239;28;20215;-52
2022/05/29 08:36:16;;;;;;;13.97;3.70;;;13.00;99.90;;;;;;5053983;28;20223;-52
2022/05/29 08:38:46;;;;;;;8.27;3.60;;;13.00;99.90;;;;;;5049064;28;20906;-50
2022/05/29 08:41:17;;;;;;;9.93;3.93;;;13.00;99.90;;;;;;5050859;28;20196;-50
2022/05/29 08:43:56;;;;;;;9.13;4.03;;;13.00;99.90;;;;;;5040392;28;20204;-51
2022/05/29 08:46:32;;;;;;;14.17;3.47;;;13.00;99.90;;;;;;5043061;28;20233;-53
2022/05/29 08:48:59;;;;;;;10.13;3.17;;;13.10;99.90;;;;;;5041058;28;20210;-50
2022/05/29 08:51:46;;;;;;;11.30;3.60;;;13.00;99.90;;;;;;5050537;28;20210;-49
2022/05/29 08:54:17;;;;;;;8.27;3.80;;;13.00;99.90;;;;;;5047891;28;20217;-49
2022/05/29 08:56:52;;;;;;;10.70;3.60;;;13.00;99.90;;;;;;5046485;28;20227;-52
2022/05/29 08:59:30;;;;;;;10.00;3.10;;;13.10;99.90;;;;;;5056218;28;20686;-49
2022/05/29 09:02:06;;;;;;;9.13;3.67;;;13.20;99.90;;;;;;5042563;28;20207;-50
2022/05/29 09:04:36;;;;;;;14.53;3.90;;;13.20;99.90;;;;;;5048897;28;20206;-50
2022/05/29 09:07:06;;;;;;;11.10;3.00;;;13.30;99.90;;;;;;5055296;28;20198;-47
2022/05/29 09:09:38;;;;;;;7.83;2.90;;;13.30;99.90;;;;;;5055374;28;20214;-52
2022/05/29 09:12:12;;;;;;;9.90;3.37;;;13.40;99.90;;;;;;5040583;28;20195;-46
2022/05/29 09:14:43;;;;;;;10.27;2.73;;;13.50;99.90;;;;;;5052484;28;20198;-52
2022/05/29 09:17:17;;;;;;;9.40;3.03;;;13.60;99.90;;;;;;5052304;28;20211;-52
2022/05/29 09:19:48;;;;;;;5.57;2.33;;;13.70;99.90;;;;;;5051283;28;20199;-50
2022/05/29 09:22:21;;;;;;;9.40;2.97;;;13.80;99.90;;;;;;5047934;28;20290;-53
2022/05/29 09:24:58;;;;;;;7.67;2.80;;;13.90;99.90;;;;;;5041623;28;20286;-49
2022/05/29 09:27:27;;;;;;;7.30;2.13;;;13.90;99.90;;;;;;5045011;28;20204;-47
2022/05/29 09:29:54;;;;;;;7.97;2.67;;;14.00;99.90;;;;;;5047952;28;20207;-48
2022/05/29 09:32:23;;;;;;;7.73;2.87;;;14.00;99.90;;;;;;5049028;28;20211;-51
2022/05/29 09:35:00;;;;;;;9.43;3.40;;;14.00;99.90;;;;;;5052515;28;20565;-51
2022/05/29 09:37:37;;;;;;;6.37;2.20;;;14.10;99.90;;;;;;5039827;28;20215;-48
2022/05/29 09:40:10;;;;;;;9.00;2.50;;;14.00;99.90;;;;;;5050966;28;20288;-45
2022/05/29 09:42:42;;;;;;;6.73;2.47;;;14.00;99.90;;;;;;5047563;28;20545;-51
2022/05/29 09:45:15;;;;;;;8.80;2.50;;;14.00;99.90;;;;;;5050719;28;20240;-46
2022/05/29 09:50:43;;;;;;;8.40;2.87;;;13.80;99.90;;;;;;5048299;28;20286;-48
2022/05/29 09:53:13;;;;;;;6.87;2.20;;;13.70;99.90;;;;;;5048196;28;20191;-52
2022/05/29 09:55:54;;;;;;;5.47;2.57;;;13.60;99.90;;;;;;5043118;28;20294;-48
2022/05/29 09:58:35;;;;;;;10.07;2.97;;;13.50;99.90;;;;;;5046474;28;20219;-52
2022/05/29 10:01:06;;;;;;;9.53;2.50;;;13.30;99.90;;;;;;5047866;28;20887;-46
2022/05/29 10:03:51;;;;;;;6.27;2.73;;;13.20;99.90;;;;;;5048248;28;20218;-49
2022/05/29 10:06:24;;;;;;;6.20;2.20;;;13.10;99.90;;;;;;5050102;28;20282;-46
2022/05/29 10:08:53;;;;;;;7.03;2.20;;;13.20;99.90;;;;;;5037252;28;20227;-52
2022/05/29 10:11:23;;;;;;;7.47;2.30;;;13.20;99.90;;;;;;5051123;28;20229;-46
2022/05/29 10:13:52;;;;;;;10.77;2.57;;;13.20;99.90;;;;;;5042593;28;20601;-51
2022/05/29 10:16:34;;;;;;;4.50;1.90;;;13.20;99.90;;;;;;5049978;28;20214;-50
2022/05/29 10:19:09;;;;;;;11.03;2.90;;;13.20;99.90;;;;;;5045538;28;20219;-46
2022/05/29 10:21:44;;;;;;;7.57;2.97;;;13.20;99.90;;;;;;5048314;28;20234;-50
2022/05/29 10:24:19;;;;;;;6.67;2.93;;;13.20;99.90;;;;;;5055586;28;20199;-46
2022/05/29 10:26:49;;;;;;;7.27;2.77;;;13.10;99.90;;;;;;5047850;28;20245;-51
2022/05/29 10:29:21;;;;;;;8.53;3.00;;;13.20;99.90;;;;;;5044762;28;20304;-48
2022/05/29 10:31:51;;;;;;;8.30;2.53;;;13.20;99.90;;;;;;5044970;28;20209;-47
2022/05/29 10:34:24;;;;;;;5.80;2.23;;;13.10;99.90;;;;;;5055229;28;20207;-45
2022/05/29 10:36:52;;;;;;;9.07;2.53;;;13.10;99.90;;;;;;5039211;28;20301;-48
2022/05/29 10:39:23;;;;;;;9.50;2.20;;;13.10;99.90;;;;;;5053394;28;20711;-48
2022/05/29 10:41:52;;;;;;;4.33;2.30;;;13.20;99.90;;;;;;5039848;28;20207;-52
2022/05/29 10:44:42;;;;;;;6.50;2.10;;;13.20;99.90;;;;;;5045846;28;20253;-54
2022/05/29 10:47:22;;;;;;;6.90;2.17;;;13.30;99.90;;;;;;5047033;28;20225;-48
2022/05/29 10:49:59;;;;;;;6.83;1.97;;;13.30;99.90;;;;;;5039430;28;20210;-49
2022/05/29 10:52:45;;;;;;;7.57;2.63;;;13.30;99.90;;;;;;5056181;28;20191;-48
2022/05/29 10:55:32;;;;;;;5.40;2.10;;;13.30;99.90;;;;;;5048491;28;20207;-50
2022/05/29 10:58:18;;;;;;;7.47;2.50;;;13.40;99.90;;;;;;5044401;28;20226;-48
2022/05/29 11:00:57;;;;;;;7.97;2.13;;;13.40;99.90;;;;;;5043957;28;20203;-51
2022/05/29 11:03:47;;;;;;;6.00;2.47;;;13.40;99.90;;;;;;5053979;28;20207;-51
2022/05/29 11:06:37;;;;;;;9.97;2.57;;;13.40;99.90;;;;;;5052312;28;20267;-48
2022/05/29 11:09:18;;;;;;;8.17;3.23;;;13.40;99.90;;;;;;5041716;28;20314;-49
2022/05/29 11:11:57;;;;;;;5.10;2.30;;;13.40;99.90;;;;;;5043447;28;20282;-51
2022/05/29 11:14:42;;;;;;;7.23;3.03;;;13.40;99.90;;;;;;5054209;28;20203;-51
2022/05/29 11:17:20;;;;;;;8.57;3.43;;;13.40;99.90;;;;;;5046771;28;20203;-46
2022/05/29 11:20:02;;;;;;;9.00;2.43;;;13.30;99.90;;;;;;5043766;28;20202;-51
2022/05/29 11:22:36;;;;;;;7.57;2.50;;;13.20;99.90;;;;;;5042990;28;20211;-47
2022/05/29 11:25:16;;;;;;;6.70;2.40;;;13.20;99.90;;;;;;5033839;28;20880;-50
2022/05/29 11:27:56;;;;;;;8.10;2.57;;;13.20;99.90;;;;;;5052264;28;20214;-52
2022/05/29 11:30:29;;;;;;;12.77;2.33;;;13.10;99.90;;;;;;5043741;28;20199;-52
2022/05/29 11:33:10;;;;;;;7.83;2.67;;;13.10;99.90;;;;;;5045851;28;20200;-49
2022/05/29 11:35:52;;;;;;;4.10;2.30;;;13.00;99.90;;;;;;5046482;28;20209;-49
2022/05/29 11:38:38;;;;;;;8.13;2.77;;;12.90;99.90;;;;;;5049602;28;20227;-49
2022/05/29 11:41:09;;;;;;;8.50;2.40;;;12.90;99.90;;;;;;5039940;28;20207;-47
2022/05/29 11:43:48;;;;;;;7.23;2.27;;;13.00;99.90;;;;;;5050640;28;20202;-50
2022/05/29 11:52:28;;;;;;;12.47;2.50;;;13.20;99.90;;;;;;5044988;28;20211;-46
2022/05/29 11:55:01;;;;;;;4.73;1.67;;;13.10;99.90;;;;;;5041675;28;20236;-47
2022/05/29 11:57:36;;;;;;;6.40;2.43;;;13.10;99.90;;;;;;5048733;28;20222;-48
2022/05/29 12:00:09;;;;;;;7.80;2.20;;;13.10;99.90;;;;;;5044353;28;20437;-50
2022/05/29 12:02:43;;;;;;;6.90;2.57;;;13.00;99.90;;;;;;5043567;28;20696;-48
2022/05/29 12:05:26;;;;;;;7.73;2.43;;;12.90;99.90;;;;;;5055746;28;20305;-46
2022/05/29 12:07:57;;;;;;;5.47;1.83;;;12.90;99.90;;;;;;5049867;28;20221;-47
2022/05/29 12:10:28;;;;;;;6.73;2.20;;;12.80;99.90;;;;;;5044048;28;20557;-48
2022/05/29 12:13:00;;;;;;;7.57;2.73;;;12.80;99.90;;;;;;5045259;28;20199;-47
2022/05/29 12:15:30;;;;;;;128.57;13.33;;;12.80;99.90;;;;;;5050127;28;20208;-50
2022/05/29 12:18:02;;;;;;;43.23;5.57;;;12.70;99.90;;;;;;5039891;28;20963;-46
2022/05/29 12:20:40;;;;;;;9.83;2.27;;;12.70;99.90;;;;;;5047006;28;20196;-52
2022/05/29 12:23:16;;;;;;;8.70;2.23;;;12.80;99.90;;;;;;5041454;28;20199;-53
2022/05/29 12:25:48;;;;;;;16.90;3.37;;;12.80;99.90;;;;;;5039812;28;20282;-52
2022/05/29 12:28:24;;;;;;;3.47;1.70;;;12.80;99.90;;;;;;5052324;28;20589;-49
2022/05/29 12:30:54;;;;;;;8.97;2.30;;;12.80;99.90;;;;;;5052652;28;20938;-48
2022/05/29 12:33:24;;;;;;;10.33;2.33;;;12.90;99.90;;;;;;5056397;28;20207;-47
2022/05/29 12:36:04;;;;;;;4.90;1.67;;;12.90;99.90;;;;;;5055865;28;20232;-48
2022/05/29 12:38:45;;;;;;;7.27;2.00;;;13.00;99.90;;;;;;5055678;28;20570;-50
2022/05/29 12:41:25;;;;;;;14.50;3.17;;;13.00;99.90;;;;;;5043393;28;20239;-51
2022/05/29 12:44:27;;;;;;;12.93;2.50;;;13.10;99.90;;;;;;5051845;28;20205;-47
2022/05/29 12:47:14;;;;;;;7.30;1.97;;;13.20;99.90;;;;;;5049342;28;20210;-51
2022/05/29 12:50:05;;;;;;;6.40;1.77;;;13.20;99.90;;;;;;5052239;28;20223;-52
2022/05/29 12:52:49;;;;;;;11.80;2.20;;;13.30;99.90;;;;;;5050195;28;20206;-53
2022/05/29 12:55:32;;;;;;;10.07;2.23;;;13.30;99.90;;;;;;5047556;28;20214;-47
2022/05/29 12:58:24;;;;;;;7.90;2.33;;;13.40;99.90;;;;;;5042678;28;20223;-51
2022/05/29 13:01:10;;;;;;;3.90;1.70;;;13.40;99.90;;;;;;5049058;28;20191;-52
2022/05/29 13:04:16;;;;;;;5.63;1.93;;;13.30;99.90;;;;;;5045975;28;20202;-52
2022/05/29 13:07:19;;;;;;;8.07;2.10;;;13.20;99.90;;;;;;5062009;28;20213;-52
2022/05/29 13:10:03;;;;;;;9.30;1.90;;;13.20;99.90;;;;;;5048109;28;20194;-52
2022/05/29 13:12:34;;;;;;;13.20;3.53;;;13.30;99.90;;;;;;5041137;28;20214;-50
2022/05/29 13:15:06;;;;;;;5.83;1.70;;;13.30;99.90;;;;;;5047134;28;20894;-53
2022/05/29 13:17:35;;;;;;;4.80;1.63;;;13.30;99.90;;;;;;5058454;28;20851;-53
2022/05/29 13:20:09;;;;;;;4.63;2.37;;;13.40;99.90;;;;;;5043846;28;20199;-51
2022/05/29 13:22:55;;;;;;;6.50;1.90;;;13.50;99.90;;;;;;5052344;28;20226;-53
2022/05/29 13:25:26;;;;;;;6.53;1.70;;;13.60;99.90;;;;;;5046132;28;20264;-49
2022/05/29 13:27:56;;;;;;;11.23;2.37;;;13.60;99.90;;;;;;5045010;28;20202;-49
2022/05/29 13:31:07;;;;;;;6.63;1.83;;;13.60;99.90;;;;;;5055746;28;20203;-49
2022/05/29 13:33:53;;;;;;;9.63;2.08;;;13.60;99.90;;;;;;5050313;28;20899;-52
2022/05/29 13:37:06;;;;;;;6.90;1.73;;;13.70;99.90;;;;;;5055550;28;20252;-50
2022/05/29 13:39:53;;;;;;;7.77;2.10;;;13.80;99.90;;;;;;5051437;28;20272;-54
2022/05/29 13:42:28;;;;;;;4.53;1.43;;;13.90;99.90;;;;;;5041742;28;20215;-49
2022/05/29 13:44:55;;;;;;;6.30;2.27;;;13.90;99.90;;;;;;5050902;28;20233;-51